Terminal Aerodrome Forecast
Issued by NWS Boston, MA

Home | Current Version | Previous Version | Text Only | Print | Product List | Glossary On
Versions: 1 2 3 4 5 6 7 8 9 10 11 12 13 14 15 16 17 18 19 20 21 22 23 24 25 26 27 28 29 30 31 32 33 34 35 36 37 38 39 40 41 42 43 44
044
FTUS41 KBOX 021739
TAFBDL
TAF
KBDL 021739Z 0218/0324 VRB03KT P6SM OVC008
     FM022200 27005KT 6SM BR OVC008
     FM030300 29004KT 6SM BR OVC020
     FM030600 00000KT P6SM OVC020
     FM030800 36004KT P6SM -RA OVC020
     FM031300 01004KT 3SM BR VCSH OVC020
     FM031500 36005KT P6SM OVC020
     FM032200 08006KT P6SM BKN020=

USA.gov is the U.S. government's official web portal to all federal, state and local government web resources and services.